Time;durP1;ratioP1;P1;durP2;ratioP2;P2;SDS_P1;SDS_P2;PMS_P1;PMS_P2;Temp;Humidity;BMP_temperature;BMP_pressure;BME280_temperature;BME280_humidity;BME280_pressure;Samples;Min_cycle;Max_cycle;Signal;HPM_P1;HPM_P2
2022/05/24 00:02:07;;;;;;;25.05;20.25;;;;;;;;;;5015498;28;20049;-31
2022/05/24 00:04:33;;;;;;;20.45;16.00;;;;;;;;;;5015462;28;20401;-31
2022/05/24 00:06:59;;;;;;;18.83;14.38;;;;;;;;;;5014877;28;20038;-31
2022/05/24 00:09:25;;;;;;;25.83;16.88;;;;;;;;;;5012578;28;20046;-31
2022/05/24 00:11:52;;;;;;;18.85;13.52;;;;;;;;;;5016388;28;20409;-31
2022/05/24 00:15:19;;;;;;;25.90;16.52;;;;;;;;;;5018062;28;20058;-31
2022/05/24 00:17:04;;;;;;;23.33;15.00;;;;;;;;;;5014827;28;20520;-32
2022/05/24 00:19:30;;;;;;;16.33;12.93;;;;;;;;;;5013441;28;20053;-31
2022/05/24 00:21:56;;;;;;;20.15;14.20;;;;;;;;;;5015010;28;20490;-31
2022/05/24 00:24:22;;;;;;;19.13;13.05;;;;;;;;;;5014467;28;20103;-31
2022/05/24 00:26:48;;;;;;;19.52;13.15;;;;;;;;;;5013504;28;20121;-32
2022/05/24 00:29:14;;;;;;;15.60;9.98;;;;;;;;;;5013840;28;20042;-32
2022/05/24 00:31:41;;;;;;;14.45;11.27;;;;;;;;;;4997753;28;20065;-32
2022/05/24 00:34:07;;;;;;;15.40;11.40;;;;;;;;;;5013663;28;20067;-31
2022/05/24 00:36:33;;;;;;;12.93;10.00;;;;;;;;;;5014761;28;20050;-32
2022/05/24 00:38:59;;;;;;;14.82;10.55;;;;;;;;;;5014337;28;20143;-31
2022/05/24 00:41:41;;;;;;;14.52;9.73;;;;;;;;;;5015001;28;20129;-31
2022/05/24 00:44:09;;;;;;;18.13;11.18;;;;;;;;;;5014258;28;20053;-32
2022/05/24 00:46:44;;;;;;;12.68;7.50;;;;;;;;;;5014652;28;20481;-31
2022/05/24 00:49:30;;;;;;;9.85;7.13;;;;;;;;;;5012835;28;20382;-32
2022/05/24 00:51:59;;;;;;;11.30;8.18;;;;;;;;;;5013636;28;20156;-32
2022/05/24 00:54:28;;;;;;;11.43;8.77;;;;;;;;;;5013443;28;20042;-31
2022/05/24 00:57:05;;;;;;;11.60;8.10;;;;;;;;;;5003885;28;20513;-31
2022/05/24 00:59:31;;;;;;;17.73;10.15;;;;;;;;;;5013988;28;20404;-32
2022/05/24 01:01:58;;;;;;;11.48;8.48;;;;;;;;;;5013248;28;21024;-32
2022/05/24 01:04:25;;;;;;;11.38;7.15;;;;;;;;;;5014385;28;20042;-31
2022/05/24 01:06:51;;;;;;;10.07;6.80;;;;;;;;;;5013069;28;20073;-31
2022/05/24 01:09:30;;;;;;;10.57;7.22;;;;;;;;;;5014815;28;20052;-32
2022/05/24 01:12:04;;;;;;;14.10;8.60;;;;;;;;;;5014287;28;20056;-31
2022/05/24 01:14:30;;;;;;;11.60;7.80;;;;;;;;;;5016321;28;20061;-31
2022/05/24 01:16:57;;;;;;;9.05;7.13;;;;;;;;;;5014126;28;20046;-31
2022/05/24 01:19:34;;;;;;;13.35;7.50;;;;;;;;;;5013879;28;20382;-31
2022/05/24 01:22:21;;;;;;;9.18;6.63;;;;;;;;;;5014104;28;20061;-30
2022/05/24 01:25:08;;;;;;;12.32;9.07;;;;;;;;;;5014885;28;20401;-31
2022/05/24 01:27:35;;;;;;;12.63;8.05;;;;;;;;;;5014268;28;20125;-30
2022/05/24 01:30:02;;;;;;;12.65;10.05;;;;;;;;;;5012874;28;20053;-31
2022/05/24 01:37:59;;;;;;;14.43;10.18;;;;;;;;;;5012689;28;20038;-31
2022/05/24 01:40:25;;;;;;;15.02;10.82;;;;;;;;;;5012313;28;20137;-32
2022/05/24 01:42:52;;;;;;;18.88;12.00;;;;;;;;;;5013588;28;20056;-31
2022/05/24 01:45:21;;;;;;;15.55;11.63;;;;;;;;;;5015581;28;20038;-30
2022/05/24 01:47:48;;;;;;;17.92;12.02;;;;;;;;;;5012206;28;20077;-31
2022/05/24 01:50:18;;;;;;;18.88;12.35;;;;;;;;;;5013728;28;20046;-31
2022/05/24 01:52:58;;;;;;;19.38;13.45;;;;;;;;;;5012544;28;20046;-31
2022/05/24 01:55:28;;;;;;;24.23;15.93;;;;;;;;;;5011084;28;20056;-30
2022/05/24 01:57:57;;;;;;;23.05;14.68;;;;;;;;;;5012553;28;20104;-32
2022/05/24 02:00:23;;;;;;;17.55;12.30;;;;;;;;;;5032529;28;20125;-31
2022/05/24 02:02:49;;;;;;;19.08;14.88;;;;;;;;;;5018446;28;20060;-31
2022/05/24 02:05:30;;;;;;;25.52;13.38;;;;;;;;;;5024951;28;20559;-30
2022/05/24 02:07:56;;;;;;;23.00;12.95;;;;;;;;;;5032439;28;20389;-31
2022/05/24 02:10:22;;;;;;;26.27;17.30;;;;;;;;;;5014398;28;20077;-30
2022/05/24 02:12:51;;;;;;;19.08;13.18;;;;;;;;;;5012849;28;20560;-30
2022/05/24 02:15:19;;;;;;;23.27;14.15;;;;;;;;;;5013863;28;20501;-30
2022/05/24 02:17:58;;;;;;;19.88;13.43;;;;;;;;;;5013701;28;20038;-31
2022/05/24 02:20:29;;;;;;;18.85;14.88;;;;;;;;;;5012231;28;20049;-30
2022/05/24 02:22:55;;;;;;;28.50;17.75;;;;;;;;;;5012309;28;20128;-31
2022/05/24 02:25:34;;;;;;;26.15;17.15;;;;;;;;;;5012933;28;20124;-31
2022/05/24 02:28:00;;;;;;;26.50;18.58;;;;;;;;;;5013189;28;20498;-30
2022/05/24 02:30:27;;;;;;;21.60;16.75;;;;;;;;;;5013256;28;20501;-30
2022/05/24 02:32:53;;;;;;;23.17;15.88;;;;;;;;;;5012722;28;20081;-30
2022/05/24 02:35:20;;;;;;;24.63;15.65;;;;;;;;;;5012882;28;20049;-30
2022/05/24 02:37:46;;;;;;;19.98;13.80;;;;;;;;;;5013319;28;20046;-30
2022/05/24 02:42:58;;;;;;;23.20;16.30;;;;;;;;;;5030713;28;20054;-30
2022/05/24 02:45:24;;;;;;;29.45;16.38;;;;;;;;;;5028670;28;20042;-30
2022/05/24 02:47:50;;;;;;;20.50;15.02;;;;;;;;;;5012734;28;20104;-30
2022/05/24 02:50:17;;;;;;;23.40;17.92;;;;;;;;;;5013610;28;20050;-30
2022/05/24 02:52:43;;;;;;;22.50;14.75;;;;;;;;;;5012874;28;20053;-30
2022/05/24 02:55:10;;;;;;;20.08;15.48;;;;;;;;;;5012281;28;20556;-30
2022/05/24 02:57:36;;;;;;;19.15;13.40;;;;;;;;;;5012765;28;20049;-30
2022/05/24 03:00:04;;;;;;;24.98;16.40;;;;;;;;;;5015350;28;20077;-31
2022/05/24 03:02:30;;;;;;;23.88;15.88;;;;;;;;;;5034296;28;20053;-31
2022/05/24 03:04:56;;;;;;;19.10;15.35;;;;;;;;;;5016588;28;20049;-31
2022/05/24 03:10:07;;;;;;;24.35;18.52;;;;;;;;;;5015556;28;20072;-31
2022/05/24 03:15:17;;;;;;;25.98;17.40;;;;;;;;;;5015462;28;20081;-30
2022/05/24 03:17:44;;;;;;;21.70;16.58;;;;;;;;;;5015844;28;20125;-30
2022/05/24 03:20:10;;;;;;;25.38;19.23;;;;;;;;;;5016309;28;20133;-30
2022/05/24 03:22:36;;;;;;;27.13;19.65;;;;;;;;;;5016361;28;20457;-30
2022/05/24 03:25:02;;;;;;;25.98;15.77;;;;;;;;;;5015700;28;20497;-31
2022/05/24 03:27:28;;;;;;;22.50;16.25;;;;;;;;;;5016711;28;20429;-30
2022/05/24 03:29:54;;;;;;;29.50;21.17;;;;;;;;;;5014900;28;20041;-30
2022/05/24 03:32:20;;;;;;;26.45;19.17;;;;;;;;;;5016256;28;20050;-31
2022/05/24 03:34:47;;;;;;;27.58;17.98;;;;;;;;;;5016298;28;20065;-30
2022/05/24 03:37:13;;;;;;;32.50;21.70;;;;;;;;;;5016183;28;20069;-30
2022/05/24 03:39:39;;;;;;;32.05;20.58;;;;;;;;;;5015956;28;20046;-29
2022/05/24 03:42:06;;;;;;;33.78;21.95;;;;;;;;;;5016082;28;20684;-30
2022/05/24 03:44:32;;;;;;;35.25;25.63;;;;;;;;;;5015824;28;20081;-30
2022/05/24 03:46:58;;;;;;;33.58;22.05;;;;;;;;;;5013842;28;20058;-30
2022/05/24 03:49:24;;;;;;;34.63;23.65;;;;;;;;;;5016715;28;20053;-30
2022/05/24 03:51:51;;;;;;;39.33;26.33;;;;;;;;;;5016064;28;20133;-30
2022/05/24 03:54:17;;;;;;;44.58;28.95;;;;;;;;;;5035710;28;20045;-29
2022/05/24 03:57:59;;;;;;;45.58;29.05;;;;;;;;;;5025240;28;20493;-30
2022/05/24 03:59:29;;;;;;;39.67;25.50;;;;;;;;;;5016120;28;20417;-30
2022/05/24 04:01:55;;;;;;;36.20;23.42;;;;;;;;;;5031441;28;20041;-31
2022/05/24 04:04:22;;;;;;;41.92;26.63;;;;;;;;;;5034060;28;20057;-31
2022/05/24 04:06:48;;;;;;;38.22;24.95;;;;;;;;;;5028412;28;20136;-30
2022/05/24 04:09:14;;;;;;;44.83;28.60;;;;;;;;;;5013966;28;20078;-29
2022/05/24 04:11:40;;;;;;;33.92;23.75;;;;;;;;;;5014823;28;20052;-29
2022/05/24 04:14:07;;;;;;;37.15;26.20;;;;;;;;;;5016002;28;20073;-30
2022/05/24 04:16:36;;;;;;;39.83;26.10;;;;;;;;;;5014533;28;20050;-30
2022/05/24 04:19:02;;;;;;;45.58;30.85;;;;;;;;;;5014492;28;20050;-30
2022/05/24 04:21:28;;;;;;;41.67;29.40;;;;;;;;;;5014800;28;20475;-29
2022/05/24 04:23:54;;;;;;;33.15;23.13;;;;;;;;;;5018484;28;20046;-30
2022/05/24 04:26:20;;;;;;;32.80;22.50;;;;;;;;;;5034699;28;20045;-29
2022/05/24 04:28:46;;;;;;;29.05;22.48;;;;;;;;;;5034759;28;20124;-29
2022/05/24 04:31:12;;;;;;;34.78;23.27;;;;;;;;;;5019295;28;20465;-30
2022/05/24 04:33:38;;;;;;;32.83;21.17;;;;;;;;;;5033098;28;20053;-30
2022/05/24 04:36:04;;;;;;;34.10;20.33;;;;;;;;;;5034911;28;20107;-30
2022/05/24 04:38:31;;;;;;;30.83;18.52;;;;;;;;;;5014309;28;20493;-29
2022/05/24 04:43:41;;;;;;;20.95;16.90;;;;;;;;;;5016222;28;20054;-29
2022/05/24 04:46:07;;;;;;;25.17;17.60;;;;;;;;;;5016341;28;20548;-30
2022/05/24 04:48:33;;;;;;;22.23;15.80;;;;;;;;;;5013190;28;20087;-29
2022/05/24 04:51:00;;;;;;;25.80;15.15;;;;;;;;;;5013497;28;20041;-29
2022/05/24 04:53:27;;;;;;;23.05;15.38;;;;;;;;;;5014570;28;20045;-29
2022/05/24 04:55:53;;;;;;;18.67;13.05;;;;;;;;;;5014924;28;20045;-29
2022/05/24 04:58:19;;;;;;;21.55;11.43;;;;;;;;;;5012956;28;20042;-29
2022/05/24 05:00:47;;;;;;;19.85;12.82;;;;;;;;;;5014378;28;20052;-29
2022/05/24 05:03:14;;;;;;;13.32;9.77;;;;;;;;;;5013128;28;20129;-29
2022/05/24 05:05:41;;;;;;;18.40;11.18;;;;;;;;;;5015622;28;20069;-30
2022/05/24 05:08:07;;;;;;;18.30;11.10;;;;;;;;;;5012636;28;20088;-29
2022/05/24 05:10:34;;;;;;;15.27;8.82;;;;;;;;;;5014285;28;20050;-30
2022/05/24 05:13:06;;;;;;;20.55;11.02;;;;;;;;;;5014237;28;20107;-29
2022/05/24 05:15:34;;;;;;;12.60;9.63;;;;;;;;;;5025359;28;20508;-29
2022/05/24 05:18:04;;;;;;;14.40;10.15;;;;;;;;;;5021610;28;20057;-29
2022/05/24 05:20:31;;;;;;;13.90;11.93;;;;;;;;;;5013232;28;20125;-29
2022/05/24 05:22:57;;;;;;;16.20;10.77;;;;;;;;;;5013545;28;20497;-29
2022/05/24 05:25:23;;;;;;;19.20;12.90;;;;;;;;;;5014075;28;20053;-29
2022/05/24 05:27:49;;;;;;;17.17;11.15;;;;;;;;;;5014996;28;20037;-29
2022/05/24 05:33:00;;;;;;;20.42;13.73;;;;;;;;;;5014690;28;20390;-29
2022/05/24 05:35:26;;;;;;;20.98;13.93;;;;;;;;;;5013919;28;20053;-28
2022/05/24 05:37:52;;;;;;;18.58;12.52;;;;;;;;;;5013715;28;20646;-29
2022/05/24 05:40:18;;;;;;;21.45;14.05;;;;;;;;;;5015298;28;20045;-30
2022/05/24 05:42:44;;;;;;;24.13;14.90;;;;;;;;;;5013840;28;20056;-28
2022/05/24 05:45:12;;;;;;;24.77;14.93;;;;;;;;;;5013273;28;20053;-28
2022/05/24 05:47:38;;;;;;;23.15;14.88;;;;;;;;;;5013393;28;20041;-29
2022/05/24 05:50:05;;;;;;;24.92;16.05;;;;;;;;;;5013916;28;20049;-28
2022/05/24 05:52:31;;;;;;;21.10;14.18;;;;;;;;;;5012253;28;20530;-30
2022/05/24 05:54:57;;;;;;;15.93;12.63;;;;;;;;;;5013683;28;20052;-28
2022/05/24 05:57:23;;;;;;;24.00;14.70;;;;;;;;;;5013128;28;20121;-29
2022/05/24 05:59:49;;;;;;;25.25;16.30;;;;;;;;;;5014276;28;20073;-28
2022/05/24 06:02:15;;;;;;;31.33;17.58;;;;;;;;;;5011968;28;20053;-28
2022/05/24 06:04:41;;;;;;;29.95;18.20;;;;;;;;;;5013606;28;20137;-28
2022/05/24 06:07:08;;;;;;;24.30;16.15;;;;;;;;;;5013245;28;20075;-28
2022/05/24 06:09:34;;;;;;;32.33;21.13;;;;;;;;;;5013849;28;20045;-28
2022/05/24 06:12:00;;;;;;;30.67;20.65;;;;;;;;;;5016714;28;20129;-28
2022/05/24 06:14:27;;;;;;;32.72;21.58;;;;;;;;;;5012996;28;20116;-29
2022/05/24 06:16:53;;;;;;;37.33;23.85;;;;;;;;;;5013487;28;20212;-28
2022/05/24 06:19:19;;;;;;;35.13;23.20;;;;;;;;;;5008456;28;20054;-28
2022/05/24 06:21:45;;;;;;;29.38;20.48;;;;;;;;;;5013829;28;20440;-28
2022/05/24 06:24:11;;;;;;;42.78;25.08;;;;;;;;;;5013240;28;20053;-28
2022/05/24 06:26:37;;;;;;;32.90;20.95;;;;;;;;;;5012894;28;20050;-27
2022/05/24 06:29:05;;;;;;;25.17;19.63;;;;;;;;;;5013452;28;20056;-28
2022/05/24 06:31:31;;;;;;;29.83;17.92;;;;;;;;;;5013762;28;20548;-28
2022/05/24 06:33:57;;;;;;;29.15;17.90;;;;;;;;;;5014717;28;20099;-27
2022/05/24 06:36:23;;;;;;;18.95;12.90;;;;;;;;;;5017129;28;20057;-28
2022/05/24 06:38:49;;;;;;;26.38;15.68;;;;;;;;;;5018945;28;20045;-27
2022/05/24 06:41:15;;;;;;;21.70;15.30;;;;;;;;;;5025655;28;20077;-28
2022/05/24 06:43:44;;;;;;;25.67;15.68;;;;;;;;;;5036751;28;20053;-28
2022/05/24 06:46:10;;;;;;;23.75;14.77;;;;;;;;;;5028711;28;20507;-28
2022/05/24 06:48:37;;;;;;;19.95;12.90;;;;;;;;;;5022880;28;20402;-28
2022/05/24 06:51:07;;;;;;;24.60;15.15;;;;;;;;;;5023032;28;20052;-28
2022/05/24 06:53:34;;;;;;;19.73;12.23;;;;;;;;;;5021058;28;20069;-28
2022/05/24 06:56:03;;;;;;;17.13;10.50;;;;;;;;;;5024694;28;20056;-28
2022/05/24 06:58:29;;;;;;;20.92;11.68;;;;;;;;;;5036379;28;20041;-28
2022/05/24 07:03:39;;;;;;;17.25;9.77;;;;;;;;;;5017535;28;20042;-28
2022/05/24 07:06:06;;;;;;;14.80;7.95;;;;;;;;;;5032763;28;20045;-28
2022/05/24 07:08:32;;;;;;;10.50;7.70;;;;;;;;;;5027720;28;20124;-28
2022/05/24 07:10:58;;;;;;;16.67;9.05;;;;;;;;;;5015811;28;20132;-27
2022/05/24 07:13:24;;;;;;;16.60;7.72;;;;;;;;;;5030404;28;20045;-28
2022/05/24 07:15:50;;;;;;;11.63;6.88;;;;;;;;;;5036172;28;20053;-27
2022/05/24 07:18:16;;;;;;;11.02;6.63;;;;;;;;;;5018429;28;20473;-27
2022/05/24 07:20:43;;;;;;;14.93;6.22;;;;;;;;;;5036340;28;20055;-28
2022/05/24 07:23:13;;;;;;;15.70;7.20;;;;;;;;;;5036320;28;20045;-27
2022/05/24 07:25:41;;;;;;;9.32;5.32;;;;;;;;;;5026244;28;20050;-27
2022/05/24 07:28:08;;;;;;;10.43;5.00;;;;;;;;;;5015238;28;20084;-28
2022/05/24 07:30:35;;;;;;;12.80;5.28;;;;;;;;;;4998531;28;20049;-27
2022/05/24 07:33:01;;;;;;;8.52;4.55;;;;;;;;;;5032437;28;20053;-28
2022/05/24 07:35:28;;;;;;;9.30;4.55;;;;;;;;;;5034866;28;20137;-27
2022/05/24 07:37:54;;;;;;;13.88;6.40;;;;;;;;;;5035691;28;20037;-28
2022/05/24 07:45:52;;;;;;;9.98;4.97;;;;;;;;;;5016495;28;20050;-27
2022/05/24 07:48:20;;;;;;;8.07;5.70;;;;;;;;;;5014648;28;20558;-28
2022/05/24 07:50:46;;;;;;;13.38;6.18;;;;;;;;;;5016415;28;20050;-27
2022/05/24 07:53:13;;;;;;;9.18;5.03;;;;;;;;;;5018023;28;20049;-27
2022/05/24 07:55:39;;;;;;;10.20;4.88;;;;;;;;;;5035424;28;20175;-28
2022/05/24 07:58:05;;;;;;;8.05;5.18;;;;;;;;;;5035404;28;20042;-28
2022/05/24 08:00:32;;;;;;;11.00;5.60;;;;;;;;;;5035307;28;20552;-27
2022/05/24 08:02:58;;;;;;;8.90;5.80;;;;;;;;;;5031375;28;20132;-28
2022/05/24 08:05:25;;;;;;;8.80;4.60;;;;;;;;;;5015403;28;20046;-27
2022/05/24 08:07:51;;;;;;;7.40;5.78;;;;;;;;;;5022914;28;20041;-27
2022/05/24 08:10:20;;;;;;;8.07;4.88;;;;;;;;;;5035334;28;20095;-29
2022/05/24 08:12:46;;;;;;;8.00;4.72;;;;;;;;;;5029609;28;20045;-28
2022/05/24 08:15:13;;;;;;;10.57;5.35;;;;;;;;;;5022891;28;20099;-27
2022/05/24 08:17:39;;;;;;;10.18;5.05;;;;;;;;;;5034969;28;20042;-27
2022/05/24 08:20:08;;;;;;;12.50;5.82;;;;;;;;;;5034982;28;20092;-27
2022/05/24 08:22:35;;;;;;;12.15;6.93;;;;;;;;;;5018189;28;20050;-27
2022/05/24 08:25:01;;;;;;;13.88;6.47;;;;;;;;;;5013546;28;20632;-27
2022/05/24 08:27:27;;;;;;;10.50;6.20;;;;;;;;;;5014091;28;20060;-27
2022/05/24 08:29:53;;;;;;;10.00;6.50;;;;;;;;;;5015036;28;20046;-29
2022/05/24 08:32:19;;;;;;;9.15;5.20;;;;;;;;;;5013453;28;20065;-27
2022/05/24 08:34:48;;;;;;;9.30;5.50;;;;;;;;;;5014914;28;20137;-27
2022/05/24 08:37:14;;;;;;;8.98;5.05;;;;;;;;;;5014850;28;20046;-27
2022/05/24 08:39:40;;;;;;;9.23;6.28;;;;;;;;;;5014868;28;20505;-27
2022/05/24 08:42:18;;;;;;;12.30;6.97;;;;;;;;;;5013617;28;20103;-27
2022/05/24 08:50:33;;;;;;;11.80;5.80;;;;;;;;;;5034469;28;20056;-27
2022/05/24 08:53:04;;;;;;;12.30;7.13;;;;;;;;;;5034628;28;20365;-27
2022/05/24 08:55:32;;;;;;;14.15;6.75;;;;;;;;;;5032385;28;20496;-26
2022/05/24 08:57:59;;;;;;;10.98;6.97;;;;;;;;;;5028580;28;20056;-26
2022/05/24 09:00:26;;;;;;;10.05;5.97;;;;;;;;;;5025568;28;20053;-27
2022/05/24 09:02:53;;;;;;;14.50;7.82;;;;;;;;;;5034149;28;20052;-25
2022/05/24 09:05:29;;;;;;;27.88;3.20;;;;;;;;;;5016944;28;20457;-29
2022/05/24 09:08:22;;;;;;;5.35;2.05;;;;;;;;;;5012931;28;20449;-28
2022/05/24 09:10:57;;;;;;;6.13;2.17;;;;;;;;;;5005158;28;20053;-28
2022/05/24 09:13:41;;;;;;;4.32;2.35;;;;;;;;;;5014403;28;20045;-28
2022/05/24 09:16:10;;;;;;;5.97;2.10;;;;;;;;;;5029941;28;20132;-29
2022/05/24 09:18:51;;;;;;;4.40;1.65;;;;;;;;;;5014406;28;20385;-28
2022/05/24 09:21:22;;;;;;;5.20;1.90;;;;;;;;;;5014131;28;20042;-28
2022/05/24 09:23:52;;;;;;;4.43;2.35;;;;;;;;;;5014194;28;20052;-28
2022/05/24 09:26:24;;;;;;;4.50;2.25;;;;;;;;;;5013980;28;20050;-28
2022/05/24 09:28:52;;;;;;;2.55;1.75;;;;;;;;;;5014656;28;20046;-29
2022/05/24 09:31:38;;;;;;;3.90;2.75;;;;;;;;;;5013949;28;20108;-29
2022/05/24 09:34:22;;;;;;;4.90;2.15;;;;;;;;;;5014269;28;20104;-29
2022/05/24 09:37:08;;;;;;;2.25;2.00;;;;;;;;;;5019809;28;20052;-29
2022/05/24 09:39:35;;;;;;;2.05;1.83;;;;;;;;;;5024851;28;20092;-29
2022/05/24 09:42:01;;;;;;;4.25;2.20;;;;;;;;;;5020154;28;20050;-29
2022/05/24 09:44:28;;;;;;;2.95;2.08;;;;;;;;;;5014191;28;20041;-30
2022/05/24 09:46:55;;;;;;;3.80;2.00;;;;;;;;;;5020059;28;20037;-29
2022/05/24 09:49:31;;;;;;;4.90;2.83;;;;;;;;;;5033555;28;20103;-28
2022/05/24 09:52:07;;;;;;;4.50;2.83;;;;;;;;;;5022509;28;20504;-28
2022/05/24 09:54:33;;;;;;;5.20;3.00;;;;;;;;;;5014343;28;20138;-28
2022/05/24 09:56:59;;;;;;;5.57;3.30;;;;;;;;;;5013665;28;20042;-28
2022/05/24 09:59:28;;;;;;;5.82;2.70;;;;;;;;;;5016817;28;20497;-29
2022/05/24 10:01:54;;;;;;;3.30;2.42;;;;;;;;;;5031245;28;20156;-29
2022/05/24 10:04:25;;;;;;;3.22;2.78;;;;;;;;;;5024394;28;20041;-29
2022/05/24 10:07:11;;;;;;;5.75;2.13;;;;;;;;;;5016516;28;20330;-28
2022/05/24 10:09:52;;;;;;;3.00;2.03;;;;;;;;;;5029426;28;20096;-29
2022/05/24 10:12:37;;;;;;;4.85;2.70;;;;;;;;;;5018099;28;20052;-28
2022/05/24 10:15:03;;;;;;;2.78;2.00;;;;;;;;;;5018578;28;20509;-27
2022/05/24 10:17:33;;;;;;;2.80;2.30;;;;;;;;;;5016275;28;20041;-28
2022/05/24 10:20:02;;;;;;;5.93;2.40;;;;;;;;;;5017462;28;20568;-28
2022/05/24 10:22:40;;;;;;;4.38;2.28;;;;;;;;;;5015675;28;20072;-28
2022/05/24 10:25:18;;;;;;;3.45;2.50;;;;;;;;;;5028275;28;20053;-27
2022/05/24 10:27:45;;;;;;;5.47;2.80;;;;;;;;;;5025861;28;20046;-28
2022/05/24 10:30:20;;;;;;;4.50;1.98;;;;;;;;;;5036979;28;20061;-28
2022/05/24 10:38:18;;;;;;;5.20;3.33;;;;;;;;;;5029442;28;20474;-30
2022/05/24 10:40:47;;;;;;;4.82;3.53;;;;;;;;;;5017335;28;20092;-28
2022/05/24 10:43:32;;;;;;;3.42;2.20;;;;;;;;;;5017074;28;20401;-30
2022/05/24 10:46:01;;;;;;;2.00;1.20;;;;;;;;;;5016995;28;20096;-29
2022/05/24 10:48:48;;;;;;;2.47;0.98;;;;;;;;;;5028410;28;20116;-29
2022/05/24 10:51:33;;;;;;;7.90;1.60;;;;;;;;;;5036011;28;20057;-29
2022/05/24 10:54:02;;;;;;;1.95;1.23;;;;;;;;;;5028124;28;20511;-29
2022/05/24 10:56:47;;;;;;;4.30;1.90;;;;;;;;;;5031959;28;20049;-29
2022/05/24 10:59:20;;;;;;;2.15;1.83;;;;;;;;;;5032709;28;20046;-29
2022/05/24 11:01:51;;;;;;;3.38;2.28;;;;;;;;;;5016661;28;20062;-29
2022/05/24 11:04:22;;;;;;;3.42;2.65;;;;;;;;;;5017254;28;20046;-29
2022/05/24 11:06:53;;;;;;;4.55;3.08;;;;;;;;;;5026659;28;20049;-29
2022/05/24 11:09:21;;;;;;;6.13;2.70;;;;;;;;;;5034860;28;20091;-28
2022/05/24 11:11:50;;;;;;;3.78;2.72;;;;;;;;;;5027393;28;20551;-29
2022/05/24 11:14:23;;;;;;;4.28;3.00;;;;;;;;;;5016788;28;20134;-28
2022/05/24 11:16:49;;;;;;;4.97;2.42;;;;;;;;;;4999082;28;20058;-29
2022/05/24 11:19:17;;;;;;;12.95;4.57;;;;;;;;;;5027560;28;20053;-28
2022/05/24 11:21:47;;;;;;;7.63;4.25;;;;;;;;;;5017880;28;20400;-31
2022/05/24 11:24:29;;;;;;;8.45;4.35;;;;;;;;;;5034873;28;20088;-30
2022/05/24 11:26:57;;;;;;;5.22;2.97;;;;;;;;;;5036878;28;20421;-30
2022/05/24 11:29:31;;;;;;;7.32;3.00;;;;;;;;;;5027104;28;20041;-28
2022/05/24 11:32:00;;;;;;;3.70;3.08;;;;;;;;;;5015836;28;20145;-29
2022/05/24 11:34:31;;;;;;;4.60;3.38;;;;;;;;;;5016067;28;20054;-28
2022/05/24 11:37:03;;;;;;;5.03;3.40;;;;;;;;;;5016031;28;20386;-28
2022/05/24 11:39:31;;;;;;;5.27;2.20;;;;;;;;;;5019304;28;20558;-31
2022/05/24 11:42:15;;;;;;;3.08;1.70;;;;;;;;;;5015944;28;20042;-28
2022/05/24 11:44:41;;;;;;;2.90;1.45;;;;;;;;;;5027525;28;20417;-27
2022/05/24 11:47:07;;;;;;;3.05;1.75;;;;;;;;;;5035899;28;20048;-27
2022/05/24 11:49:33;;;;;;;3.30;1.60;;;;;;;;;;5035606;28;20046;-27
2022/05/24 11:52:00;;;;;;;1.73;1.20;;;;;;;;;;5036095;28;20054;-27
2022/05/24 11:54:29;;;;;;;1.52;0.70;;;;;;;;;;5034429;28;20057;-28
2022/05/24 11:57:01;;;;;;;3.22;0.68;;;;;;;;;;5015032;28;20045;-27
2022/05/24 11:59:39;;;;;;;3.65;1.45;;;;;;;;;;5014479;28;20058;-27
2022/05/24 12:02:32;;;;;;;8.25;1.77;;;;;;;;;;5015518;28;20050;-26
2022/05/24 12:07:56;;;;;;;3.40;1.38;;;;;;;;;;5031907;28;20053;-29
2022/05/24 12:10:22;;;;;;;5.88;1.92;;;;;;;;;;5030849;28;20133;-28
2022/05/24 12:12:56;;;;;;;3.60;1.40;;;;;;;;;;5016207;28;20042;-28
2022/05/24 12:15:43;;;;;;;4.18;1.17;;;;;;;;;;5030211;28;20053;-27
2022/05/24 12:18:11;;;;;;;4.03;1.00;;;;;;;;;;5034945;28;20396;-28
2022/05/24 12:20:37;;;;;;;5.13;0.88;;;;;;;;;;5035044;28;20115;-27
2022/05/24 12:23:15;;;;;;;2.90;1.23;;;;;;;;;;5025597;28;20445;-27
2022/05/24 12:25:50;;;;;;;5.50;1.10;;;;;;;;;;5015199;28;20061;-27
2022/05/24 12:28:16;;;;;;;4.63;1.33;;;;;;;;;;5015157;28;20557;-27
2022/05/24 12:30:49;;;;;;;7.05;1.65;;;;;;;;;;5014901;28;20045;-26
2022/05/24 12:33:18;;;;;;;6.45;1.25;;;;;;;;;;5014828;28;20050;-27
2022/05/24 12:35:56;;;;;;;5.70;1.30;;;;;;;;;;5015202;28;20508;-27
2022/05/24 12:38:25;;;;;;;2.60;0.88;;;;;;;;;;5013988;28;20054;-27
2022/05/24 12:41:04;;;;;;;5.55;0.80;;;;;;;;;;5013640;28;20045;-26
2022/05/24 12:43:30;;;;;;;3.35;0.70;;;;;;;;;;5014864;28;20050;-28
2022/05/24 12:46:00;;;;;;;3.00;0.95;;;;;;;;;;5014623;28;20050;-26
2022/05/24 12:48:36;;;;;;;9.43;1.63;;;;;;;;;;5015096;28;20539;-26
2022/05/24 12:51:04;;;;;;;7.07;1.05;;;;;;;;;;5015256;28;20050;-26
2022/05/24 12:53:30;;;;;;;5.97;1.10;;;;;;;;;;5015183;28;20379;-26
2022/05/24 12:56:02;;;;;;;5.25;0.70;;;;;;;;;;5014651;28;20045;-26
2022/05/24 12:58:28;;;;;;;3.70;1.13;;;;;;;;;;5014458;28;20045;-26
2022/05/24 13:01:07;;;;;;;5.72;0.80;;;;;;;;;;5012922;28;20540;-27
2022/05/24 13:03:58;;;;;;;2.13;0.68;;;;;;;;;;5091872;28;20440;-26
2022/05/24 13:06:26;;;;;;;1.98;0.65;;;;;;;;;;5089219;28;20048;-26
2022/05/24 13:09:27;;;;;;;2.67;0.30;;;;;;;;;;5091394;28;20048;-26
2022/05/24 13:11:54;;;;;;;2.25;0.43;;;;;;;;;;5068522;28;20048;-26
2022/05/24 13:14:35;;;;;;;2.25;0.70;;;;;;;;;;5081759;28;20060;-25
2022/05/24 13:17:01;;;;;;;5.38;0.50;;;;;;;;;;5088889;28;20040;-26
2022/05/24 13:19:27;;;;;;;2.65;0.55;;;;;;;;;;5088714;28;20036;-26
2022/05/24 13:21:54;;;;;;;3.63;0.50;;;;;;;;;;5090905;28;20131;-25
2022/05/24 13:24:20;;;;;;;4.75;0.60;;;;;;;;;;5089552;28;20115;-25
2022/05/24 13:27:06;;;;;;;2.33;0.63;;;;;;;;;;5090702;28;20043;-25
2022/05/24 13:33:33;;;;;;;2.13;0.60;;;;;;;;;;5090627;28;20052;-25
2022/05/24 13:35:03;;;;;;;4.63;0.70;;;;;;;;;;5090994;28;20402;-25
2022/05/24 13:37:52;;;;;;;4.18;0.70;;;;;;;;;;5090899;28;20052;-25
2022/05/24 13:40:18;;;;;;;1.40;0.47;;;;;;;;;;5088596;28;20052;-25
2022/05/24 13:42:53;;;;;;;4.47;0.90;;;;;;;;;;5090494;28;20044;-25
2022/05/24 13:45:24;;;;;;;3.90;1.17;;;;;;;;;;5090360;28;20109;-25
2022/05/24 13:47:54;;;;;;;3.15;0.70;;;;;;;;;;5090476;28;20048;-24
2022/05/24 13:50:29;;;;;;;1.50;0.57;;;;;;;;;;5090212;28;20101;-24
2022/05/24 13:52:58;;;;;;;4.28;1.10;;;;;;;;;;5090360;28;20041;-24
2022/05/24 13:55:28;;;;;;;3.17;1.10;;;;;;;;;;5090293;28;20052;-24
2022/05/24 13:57:58;;;;;;;2.75;0.90;;;;;;;;;;5089768;28;20048;-24
2022/05/24 14:00:26;;;;;;;7.18;1.10;;;;;;;;;;5090552;28;20045;-25
2022/05/24 14:03:11;;;;;;;4.47;1.60;;;;;;;;;;5090049;28;20098;-24
2022/05/24 14:05:37;;;;;;;5.53;1.70;;;;;;;;;;5089404;28;20052;-24
2022/05/24 14:08:05;;;;;;;6.97;1.42;;;;;;;;;;5088857;28;20051;-25
2022/05/24 14:10:31;;;;;;;7.07;1.90;;;;;;;;;;5090062;28;20052;-24
2022/05/24 14:12:58;;;;;;;4.47;1.70;;;;;;;;;;5087220;28;20040;-25
2022/05/24 14:15:24;;;;;;;3.00;1.75;;;;;;;;;;5076692;28;20044;-24
2022/05/24 14:17:51;;;;;;;3.88;2.00;;;;;;;;;;5076396;28;20048;-24
2022/05/24 14:20:20;;;;;;;2.33;1.40;;;;;;;;;;5076329;28;20056;-24
2022/05/24 14:22:47;;;;;;;6.05;1.80;;;;;;;;;;5059947;28;20048;-25
2022/05/24 14:25:13;;;;;;;5.60;2.05;;;;;;;;;;5061577;28;20406;-24
2022/05/24 14:27:40;;;;;;;3.70;1.75;;;;;;;;;;5067193;28;20169;-25
2022/05/24 14:30:07;;;;;;;2.30;1.30;;;;;;;;;;5066099;28;20124;-25
2022/05/24 14:32:34;;;;;;;3.25;1.30;;;;;;;;;;5063428;28;20048;-24
2022/05/24 14:35:00;;;;;;;7.75;1.95;;;;;;;;;;5067903;28;20399;-25
2022/05/24 14:37:27;;;;;;;4.03;1.85;;;;;;;;;;5075017;28;20041;-25
2022/05/24 14:39:53;;;;;;;8.35;1.48;;;;;;;;;;5057764;28;20053;-24
2022/05/24 14:42:22;;;;;;;4.53;2.28;;;;;;;;;;5057716;28;20041;-25
2022/05/24 14:44:48;;;;;;;2.60;1.60;;;;;;;;;;5072147;28;20430;-24
2022/05/24 14:47:15;;;;;;;3.88;1.60;;;;;;;;;;5072193;28;20040;-25
2022/05/24 14:49:42;;;;;;;3.38;1.88;;;;;;;;;;5055760;28;20052;-24
2022/05/24 14:52:09;;;;;;;5.75;2.88;;;;;;;;;;5055700;28;20045;-24
2022/05/24 14:54:41;;;;;;;4.68;1.98;;;;;;;;;;5055604;28;20541;-24
2022/05/24 14:57:08;;;;;;;3.50;1.80;;;;;;;;;;5055950;28;20075;-24
2022/05/24 14:59:34;;;;;;;5.90;1.83;;;;;;;;;;5059118;28;20120;-24
2022/05/24 15:02:00;;;;;;;4.82;1.70;;;;;;;;;;5075821;28;20057;-25
2022/05/24 15:04:26;;;;;;;4.18;1.63;;;;;;;;;;5076093;28;20445;-26
2022/05/24 15:06:52;;;;;;;3.90;1.77;;;;;;;;;;5069919;28;20542;-25
2022/05/24 15:17:33;;;;;;;9.63;2.40;;;;;;;;;;5054333;28;20045;-25
2022/05/24 15:20:07;;;;;;;5.68;2.60;;;;;;;;;;5076027;28;20048;-25
2022/05/24 15:22:34;;;;;;;6.03;2.13;;;;;;;;;;5062957;28;20067;-25
2022/05/24 15:25:03;;;;;;;8.07;2.90;;;;;;;;;;5072937;28;20045;-24
2022/05/24 15:27:30;;;;;;;4.03;2.45;;;;;;;;;;5069605;28;20120;-25
2022/05/24 15:29:56;;;;;;;8.45;3.28;;;;;;;;;;5056771;28;20364;-25
2022/05/24 15:32:22;;;;;;;5.43;2.85;;;;;;;;;;5073587;28;20044;-25
2022/05/24 15:34:48;;;;;;;4.13;2.50;;;;;;;;;;5063613;28;20124;-25
2022/05/24 15:37:14;;;;;;;5.78;2.58;;;;;;;;;;5071337;28;20041;-25